sensor_id;sensor_type;location;lat;lon;timestamp;temperature;humidity
46730;DHT22;32476;50.002;11.854;2023-05-02T00:00:46;6.70;99.90
46730;DHT22;32476;50.002;11.854;2023-05-02T00:03:13;6.70;99.90
46730;DHT22;32476;50.002;11.854;2023-05-02T00:05:40;6.60;99.90
46730;DHT22;32476;50.002;11.854;2023-05-02T00:08:06;6.50;99.90
46730;DHT22;32476;50.002;11.854;2023-05-02T00:10:33;6.50;99.90
46730;DHT22;32476;50.002;11.854;2023-05-02T00:13:00;6.50;99.90
46730;DHT22;32476;50.002;11.854;2023-05-02T00:15:26;6.50;99.90
46730;DHT22;32476;50.002;11.854;2023-05-02T00:17:52;6.40;99.90
46730;DHT22;32476;50.002;11.854;2023-05-02T00:20:19;6.40;99.90
46730;DHT22;32476;50.002;11.854;2023-05-02T00:22:45;6.40;99.90
46730;DHT22;32476;50.002;11.854;2023-05-02T00:25:11;6.30;99.90
46730;DHT22;32476;50.002;11.854;2023-05-02T00:27:43;6.40;99.90
46730;DHT22;32476;50.002;11.854;2023-05-02T00:30:11;6.60;99.90
46730;DHT22;32476;50.002;11.854;2023-05-02T00:32:37;6.70;99.90
46730;DHT22;32476;50.002;11.854;2023-05-02T00:35:05;7.00;99.90
46730;DHT22;32476;50.002;11.854;2023-05-02T00:37:31;7.00;99.90
46730;DHT22;32476;50.002;11.854;2023-05-02T00:39:57;7.00;99.90
46730;DHT22;32476;50.002;11.854;2023-05-02T00:42:24;7.10;99.90
46730;DHT22;32476;50.002;11.854;2023-05-02T00:44:50;7.10;99.90
46730;DHT22;32476;50.002;11.854;2023-05-02T00:47:16;7.10;99.90
46730;DHT22;32476;50.002;11.854;2023-05-02T00:49:43;7.00;99.90
46730;DHT22;32476;50.002;11.854;2023-05-02T00:52:09;7.10;99.90
46730;DHT22;32476;50.002;11.854;2023-05-02T00:54:37;7.20;99.90
46730;DHT22;32476;50.002;11.854;2023-05-02T00:57:05;7.20;99.90
46730;DHT22;32476;50.002;11.854;2023-05-02T00:59:33;7.10;99.90
46730;DHT22;32476;50.002;11.854;2023-05-02T01:10:37;7.30;99.90
46730;DHT22;32476;50.002;11.854;2023-05-02T01:13:38;7.30;99.90
46730;DHT22;32476;50.002;11.854;2023-05-02T01:16:10;7.30;99.90
46730;DHT22;32476;50.002;11.854;2023-05-02T01:18:39;7.40;99.90
46730;DHT22;32476;50.002;11.854;2023-05-02T01:21:08;7.40;99.90
46730;DHT22;32476;50.002;11.854;2023-05-02T01:24:04;7.40;99.90
46730;DHT22;32476;50.002;11.854;2023-05-02T01:29:13;7.40;99.90
46730;DHT22;32476;50.002;11.854;2023-05-02T01:31:41;7.50;99.90
46730;DHT22;32476;50.002;11.854;2023-05-02T01:34:09;7.50;99.90
46730;DHT22;32476;50.002;11.854;2023-05-02T01:36:41;7.60;99.90
46730;DHT22;32476;50.002;11.854;2023-05-02T01:39:15;7.60;99.90
46730;DHT22;32476;50.002;11.854;2023-05-02T01:41:45;7.50;99.90
46730;DHT22;32476;50.002;11.854;2023-05-02T01:44:14;7.50;99.90
46730;DHT22;32476;50.002;11.854;2023-05-02T01:46:42;7.50;99.90
46730;DHT22;32476;50.002;11.854;2023-05-02T01:49:10;7.60;99.90
46730;DHT22;32476;50.002;11.854;2023-05-02T01:51:41;7.60;99.90
46730;DHT22;32476;50.002;11.854;2023-05-02T01:54:12;7.70;99.90
46730;DHT22;32476;50.002;11.854;2023-05-02T01:56:38;7.70;99.90
46730;DHT22;32476;50.002;11.854;2023-05-02T01:59:07;7.70;99.90
46730;DHT22;32476;50.002;11.854;2023-05-02T02:01:37;7.70;99.90
46730;DHT22;32476;50.002;11.854;2023-05-02T02:04:05;7.60;99.90
46730;DHT22;32476;50.002;11.854;2023-05-02T02:06:31;7.70;99.90
46730;DHT22;32476;50.002;11.854;2023-05-02T02:08:59;7.60;99.90
46730;DHT22;32476;50.002;11.854;2023-05-02T02:11:47;7.50;99.90
46730;DHT22;32476;50.002;11.854;2023-05-02T02:14:21;7.50;99.90
46730;DHT22;32476;50.002;11.854;2023-05-02T02:16:54;7.60;99.90
46730;DHT22;32476;50.002;11.854;2023-05-02T02:19:22;7.60;99.90
46730;DHT22;32476;50.002;11.854;2023-05-02T02:21:49;7.60;99.90
46730;DHT22;32476;50.002;11.854;2023-05-02T02:24:17;7.70;99.90
46730;DHT22;32476;50.002;11.854;2023-05-02T02:26:45;7.70;99.90
46730;DHT22;32476;50.002;11.854;2023-05-02T02:29:11;7.70;99.90
46730;DHT22;32476;50.002;11.854;2023-05-02T02:31:38;7.60;99.90
46730;DHT22;32476;50.002;11.854;2023-05-02T02:34:06;7.50;99.90
46730;DHT22;32476;50.002;11.854;2023-05-02T02:36:44;7.50;99.90
46730;DHT22;32476;50.002;11.854;2023-05-02T02:42:24;7.40;99.90
46730;DHT22;32476;50.002;11.854;2023-05-02T02:45:08;7.30;99.90
46730;DHT22;32476;50.002;11.854;2023-05-02T02:47:45;7.20;99.90
46730;DHT22;32476;50.002;11.854;2023-05-02T02:50:37;7.20;99.90
46730;DHT22;32476;50.002;11.854;2023-05-02T02:53:19;7.40;99.90
46730;DHT22;32476;50.002;11.854;2023-05-02T02:56:00;7.20;99.90
46730;DHT22;32476;50.002;11.854;2023-05-02T03:01:19;7.30;99.90
46730;DHT22;32476;50.002;11.854;2023-05-02T03:03:47;7.20;99.90
46730;DHT22;32476;50.002;11.854;2023-05-02T03:06:15;7.10;99.90
46730;DHT22;32476;50.002;11.854;2023-05-02T03:08:43;7.00;99.90
46730;DHT22;32476;50.002;11.854;2023-05-02T03:11:09;6.80;99.90
46730;DHT22;32476;50.002;11.854;2023-05-02T03:13:35;6.80;99.90
46730;DHT22;32476;50.002;11.854;2023-05-02T03:18:47;6.60;99.90
46730;DHT22;32476;50.002;11.854;2023-05-02T03:21:14;6.60;99.90
46730;DHT22;32476;50.002;11.854;2023-05-02T03:23:40;6.50;99.90
46730;DHT22;32476;50.002;11.854;2023-05-02T03:26:06;6.50;99.90
46730;DHT22;32476;50.002;11.854;2023-05-02T03:28:33;6.40;99.90
46730;DHT22;32476;50.002;11.854;2023-05-02T03:31:00;6.40;99.90
46730;DHT22;32476;50.002;11.854;2023-05-02T03:33:26;6.40;99.90
46730;DHT22;32476;50.002;11.854;2023-05-02T03:35:53;6.20;99.90
46730;DHT22;32476;50.002;11.854;2023-05-02T03:38:19;6.20;99.90
46730;DHT22;32476;50.002;11.854;2023-05-02T03:40:45;6.20;99.90
46730;DHT22;32476;50.002;11.854;2023-05-02T03:43:12;6.20;99.90
46730;DHT22;32476;50.002;11.854;2023-05-02T03:45:38;6.20;99.90
46730;DHT22;32476;50.002;11.854;2023-05-02T03:48:04;6.10;99.90
46730;DHT22;32476;50.002;11.854;2023-05-02T03:50:31;6.10;99.90
46730;DHT22;32476;50.002;11.854;2023-05-02T03:52:57;6.10;99.90
46730;DHT22;32476;50.002;11.854;2023-05-02T03:55:23;6.10;99.90
46730;DHT22;32476;50.002;11.854;2023-05-02T03:57:50;6.00;99.90
46730;DHT22;32476;50.002;11.854;2023-05-02T04:00:16;6.00;99.90
46730;DHT22;32476;50.002;11.854;2023-05-02T04:02:42;6.00;99.90
46730;DHT22;32476;50.002;11.854;2023-05-02T04:05:10;6.00;99.90
46730;DHT22;32476;50.002;11.854;2023-05-02T04:07:36;5.90;99.90
46730;DHT22;32476;50.002;11.854;2023-05-02T04:10:01;6.00;99.90
46730;DHT22;32476;50.002;11.854;2023-05-02T04:12:29;6.10;99.90
46730;DHT22;32476;50.002;11.854;2023-05-02T04:14:55;6.20;99.90
46730;DHT22;32476;50.002;11.854;2023-05-02T04:17:21;6.10;99.90
46730;DHT22;32476;50.002;11.854;2023-05-02T04:19:48;6.30;99.90
46730;DHT22;32476;50.002;11.854;2023-05-02T04:22:14;6.60;99.90
46730;DHT22;32476;50.002;11.854;2023-05-02T04:24:40;6.80;99.90
46730;DHT22;32476;50.002;11.854;2023-05-02T04:27:07;6.90;99.90
46730;DHT22;32476;50.002;11.854;2023-05-02T04:29:33;6.70;99.90
46730;DHT22;32476;50.002;11.854;2023-05-02T04:31:59;7.00;99.90
46730;DHT22;32476;50.002;11.854;2023-05-02T04:34:26;6.90;99.90
46730;DHT22;32476;50.002;11.854;2023-05-02T04:36:52;6.90;99.90
46730;DHT22;32476;50.002;11.854;2023-05-02T04:39:18;6.90;99.90
46730;DHT22;32476;50.002;11.854;2023-05-02T04:41:46;7.10;99.90
46730;DHT22;32476;50.002;11.854;2023-05-02T04:44:11;7.20;99.90
46730;DHT22;32476;50.002;11.854;2023-05-02T04:46:37;7.10;99.90
46730;DHT22;32476;50.002;11.854;2023-05-02T04:49:04;7.00;99.90
46730;DHT22;32476;50.002;11.854;2023-05-02T04:51:34;7.00;99.90
46730;DHT22;32476;50.002;11.854;2023-05-02T04:54:00;7.10;99.90
46730;DHT22;32476;50.002;11.854;2023-05-02T04:56:27;7.10;99.90
46730;DHT22;32476;50.002;11.854;2023-05-02T04:58:53;7.20;99.90
46730;DHT22;32476;50.002;11.854;2023-05-02T05:01:19;7.20;99.90
46730;DHT22;32476;50.002;11.854;2023-05-02T05:03:46;7.20;99.90
46730;DHT22;32476;50.002;11.854;2023-05-02T05:06:12;7.20;99.90
46730;DHT22;32476;50.002;11.854;2023-05-02T05:08:38;7.20;99.90
46730;DHT22;32476;50.002;11.854;2023-05-02T05:11:06;7.20;99.90
46730;DHT22;32476;50.002;11.854;2023-05-02T05:13:31;7.20;99.90
46730;DHT22;32476;50.002;11.854;2023-05-02T05:15:57;7.30;99.90
46730;DHT22;32476;50.002;11.854;2023-05-02T05:18:25;7.30;99.90
46730;DHT22;32476;50.002;11.854;2023-05-02T05:20:51;7.40;99.90
46730;DHT22;32476;50.002;11.854;2023-05-02T05:23:17;7.40;99.90
46730;DHT22;32476;50.002;11.854;2023-05-02T05:25:44;7.50;99.90
46730;DHT22;32476;50.002;11.854;2023-05-02T05:28:10;7.60;99.90
46730;DHT22;32476;50.002;11.854;2023-05-02T05:30:36;7.60;99.90
46730;DHT22;32476;50.002;11.854;2023-05-02T05:33:03;7.80;99.90
46730;DHT22;32476;50.002;11.854;2023-05-02T05:35:29;7.80;99.90
46730;DHT22;32476;50.002;11.854;2023-05-02T05:37:56;7.80;99.90
46730;DHT22;32476;50.002;11.854;2023-05-02T05:40:23;7.90;99.90
46730;DHT22;32476;50.002;11.854;2023-05-02T05:42:49;8.00;99.90
46730;DHT22;32476;50.002;11.854;2023-05-02T05:45:15;8.10;99.90
46730;DHT22;32476;50.002;11.854;2023-05-02T05:47:45;8.20;99.90
46730;DHT22;32476;50.002;11.854;2023-05-02T05:50:11;8.30;99.90
46730;DHT22;32476;50.002;11.854;2023-05-02T05:52:37;8.40;99.90
46730;DHT22;32476;50.002;11.854;2023-05-02T05:55:04;8.40;99.90
46730;DHT22;32476;50.002;11.854;2023-05-02T05:57:31;8.40;99.90
46730;DHT22;32476;50.002;11.854;2023-05-02T05:59:56;8.50;99.90
46730;DHT22;32476;50.002;11.854;2023-05-02T06:02:24;8.60;99.90
46730;DHT22;32476;50.002;11.854;2023-05-02T06:04:50;8.70;99.90
46730;DHT22;32476;50.002;11.854;2023-05-02T06:07:15;8.70;99.90
46730;DHT22;32476;50.002;11.854;2023-05-02T06:09:43;8.70;99.90
46730;DHT22;32476;50.002;11.854;2023-05-02T06:12:08;8.80;99.90
46730;DHT22;32476;50.002;11.854;2023-05-02T06:14:34;8.80;99.90
46730;DHT22;32476;50.002;11.854;2023-05-02T06:17:01;8.90;99.90
46730;DHT22;32476;50.002;11.854;2023-05-02T06:19:27;9.00;99.90
46730;DHT22;32476;50.002;11.854;2023-05-02T06:21:53;9.10;99.90
46730;DHT22;32476;50.002;11.854;2023-05-02T06:24:20;9.20;99.90
46730;DHT22;32476;50.002;11.854;2023-05-02T06:26:46;9.30;99.90
46730;DHT22;32476;50.002;11.854;2023-05-02T06:29:12;9.40;99.90
46730;DHT22;32476;50.002;11.854;2023-05-02T06:31:40;9.50;99.90
46730;DHT22;32476;50.002;11.854;2023-05-02T06:34:05;9.60;99.90
46730;DHT22;32476;50.002;11.854;2023-05-02T06:36:31;9.60;99.90
46730;DHT22;32476;50.002;11.854;2023-05-02T06:38:59;9.60;99.90
46730;DHT22;32476;50.002;11.854;2023-05-02T06:41:24;9.50;99.90
46730;DHT22;32476;50.002;11.854;2023-05-02T06:43:50;9.50;99.90
46730;DHT22;32476;50.002;11.854;2023-05-02T06:46:17;9.50;99.90
46730;DHT22;32476;50.002;11.854;2023-05-02T06:48:45;9.50;99.90
46730;DHT22;32476;50.002;11.854;2023-05-02T06:51:13;9.50;99.90
46730;DHT22;32476;50.002;11.854;2023-05-02T06:53:40;9.50;99.90
46730;DHT22;32476;50.002;11.854;2023-05-02T06:56:06;9.50;99.90
46730;DHT22;32476;50.002;11.854;2023-05-02T06:58:32;9.50;99.90
46730;DHT22;32476;50.002;11.854;2023-05-02T07:01:00;9.50;99.90
46730;DHT22;32476;50.002;11.854;2023-05-02T07:03:25;9.50;99.90
46730;DHT22;32476;50.002;11.854;2023-05-02T07:05:51;9.50;99.90
46730;DHT22;32476;50.002;11.854;2023-05-02T07:08:19;9.50;99.90
46730;DHT22;32476;50.002;11.854;2023-05-02T07:10:46;9.40;99.90
46730;DHT22;32476;50.002;11.854;2023-05-02T07:13:12;9.30;99.90
46730;DHT22;32476;50.002;11.854;2023-05-02T07:15:40;9.30;99.90
46730;DHT22;32476;50.002;11.854;2023-05-02T07:18:06;9.30;99.90
46730;DHT22;32476;50.002;11.854;2023-05-02T07:20:31;9.30;99.90
46730;DHT22;32476;50.002;11.854;2023-05-02T07:22:59;9.30;99.90
46730;DHT22;32476;50.002;11.854;2023-05-02T07:25:24;9.20;99.90
46730;DHT22;32476;50.002;11.854;2023-05-02T07:27:50;9.30;99.90
46730;DHT22;32476;50.002;11.854;2023-05-02T07:30:17;9.30;99.90
46730;DHT22;32476;50.002;11.854;2023-05-02T07:32:44;9.40;99.90
46730;DHT22;32476;50.002;11.854;2023-05-02T07:35:09;9.50;99.90
46730;DHT22;32476;50.002;11.854;2023-05-02T07:37:37;9.70;99.90
46730;DHT22;32476;50.002;11.854;2023-05-02T07:40:03;9.80;99.90
46730;DHT22;32476;50.002;11.854;2023-05-02T07:42:30;9.90;99.90
46730;DHT22;32476;50.002;11.854;2023-05-02T07:44:57;10.10;99.90
46730;DHT22;32476;50.002;11.854;2023-05-02T07:47:24;10.10;99.90
46730;DHT22;32476;50.002;11.854;2023-05-02T07:49:51;10.10;99.90
46730;DHT22;32476;50.002;11.854;2023-05-02T07:52:19;10.40;99.90
46730;DHT22;32476;50.002;11.854;2023-05-02T07:54:47;10.50;99.90
46730;DHT22;32476;50.002;11.854;2023-05-02T07:57:14;10.70;99.90
46730;DHT22;32476;50.002;11.854;2023-05-02T07:59:41;10.70;99.90
46730;DHT22;32476;50.002;11.854;2023-05-02T08:02:07;10.50;99.90
46730;DHT22;32476;50.002;11.854;2023-05-02T08:04:45;10.50;99.90
46730;DHT22;32476;50.002;11.854;2023-05-02T08:09:19;10.40;99.90
46730;DHT22;32476;50.002;11.854;2023-05-02T08:11:46;10.30;99.90
46730;DHT22;32476;50.002;11.854;2023-05-02T08:14:13;10.30;99.90
46730;DHT22;32476;50.002;11.854;2023-05-02T08:16:40;10.30;99.90
46730;DHT22;32476;50.002;11.854;2023-05-02T08:19:08;10.50;99.90
46730;DHT22;32476;50.002;11.854;2023-05-02T08:21:34;10.50;99.90
46730;DHT22;32476;50.002;11.854;2023-05-02T08:24:00;10.60;99.90
46730;DHT22;32476;50.002;11.854;2023-05-02T08:26:28;10.70;99.90
46730;DHT22;32476;50.002;11.854;2023-05-02T08:28:54;10.70;99.90
46730;DHT22;32476;50.002;11.854;2023-05-02T08:31:20;10.60;99.90
46730;DHT22;32476;50.002;11.854;2023-05-02T08:33:47;10.60;99.90
46730;DHT22;32476;50.002;11.854;2023-05-02T08:36:14;10.80;99.90
46730;DHT22;32476;50.002;11.854;2023-05-02T08:38:41;10.90;99.90
46730;DHT22;32476;50.002;11.854;2023-05-02T08:41:18;10.80;99.90
46730;DHT22;32476;50.002;11.854;2023-05-02T08:43:45;10.80;99.90
46730;DHT22;32476;50.002;11.854;2023-05-02T08:46:14;10.60;99.90
46730;DHT22;32476;50.002;11.854;2023-05-02T08:48:42;10.50;99.90
46730;DHT22;32476;50.002;11.854;2023-05-02T08:51:15;10.70;99.90
46730;DHT22;32476;50.002;11.854;2023-05-02T08:53:43;10.90;99.90
46730;DHT22;32476;50.002;11.854;2023-05-02T08:56:10;10.80;99.90
46730;DHT22;32476;50.002;11.854;2023-05-02T08:58:38;10.80;99.90
46730;DHT22;32476;50.002;11.854;2023-05-02T09:01:12;10.70;99.90
46730;DHT22;32476;50.002;11.854;2023-05-02T09:03:42;10.60;99.90
46730;DHT22;32476;50.002;11.854;2023-05-02T09:06:12;10.80;99.90
46730;DHT22;32476;50.002;11.854;2023-05-02T09:08:39;10.90;99.90
46730;DHT22;32476;50.002;11.854;2023-05-02T09:11:06;10.80;99.90
46730;DHT22;32476;50.002;11.854;2023-05-02T09:13:36;10.70;99.90
46730;DHT22;32476;50.002;11.854;2023-05-02T09:16:20;10.70;99.90
46730;DHT22;32476;50.002;11.854;2023-05-02T09:18:54;10.60;99.90
46730;DHT22;32476;50.002;11.854;2023-05-02T09:21:23;10.60;99.90
46730;DHT22;32476;50.002;11.854;2023-05-02T09:23:55;10.70;99.90
46730;DHT22;32476;50.002;11.854;2023-05-02T09:26:23;10.90;99.90
46730;DHT22;32476;50.002;11.854;2023-05-02T09:28:51;11.00;99.90
46730;DHT22;32476;50.002;11.854;2023-05-02T09:31:21;10.90;99.90
46730;DHT22;32476;50.002;11.854;2023-05-02T09:33:48;11.30;99.90
46730;DHT22;32476;50.002;11.854;2023-05-02T09:36:15;12.00;99.90
46730;DHT22;32476;50.002;11.854;2023-05-02T09:38:45;12.70;99.90
46730;DHT22;32476;50.002;11.854;2023-05-02T09:41:11;12.80;99.90
46730;DHT22;32476;50.002;11.854;2023-05-02T09:43:38;12.70;99.90
46730;DHT22;32476;50.002;11.854;2023-05-02T09:46:08;12.60;99.90
46730;DHT22;32476;50.002;11.854;2023-05-02T09:48:53;13.10;99.90
46730;DHT22;32476;50.002;11.854;2023-05-02T09:51:23;13.60;99.90
46730;DHT22;32476;50.002;11.854;2023-05-02T09:53:49;13.90;99.90
46730;DHT22;32476;50.002;11.854;2023-05-02T09:56:16;14.10;99.90
46730;DHT22;32476;50.002;11.854;2023-05-02T09:58:44;14.20;99.90
46730;DHT22;32476;50.002;11.854;2023-05-02T10:01:17;14.60;99.90
46730;DHT22;32476;50.002;11.854;2023-05-02T10:03:48;14.80;99.90
46730;DHT22;32476;50.002;11.854;2023-05-02T10:06:14;14.40;99.90
46730;DHT22;32476;50.002;11.854;2023-05-02T10:08:41;14.20;99.90
46730;DHT22;32476;50.002;11.854;2023-05-02T10:11:12;13.90;99.90
46730;DHT22;32476;50.002;11.854;2023-05-02T10:13:39;12.50;99.90
46730;DHT22;32476;50.002;11.854;2023-05-02T10:16:08;12.70;99.90
46730;DHT22;32476;50.002;11.854;2023-05-02T10:19:02;12.30;99.90
46730;DHT22;32476;50.002;11.854;2023-05-02T10:21:31;12.20;99.90
46730;DHT22;32476;50.002;11.854;2023-05-02T10:24:00;12.30;99.90
46730;DHT22;32476;50.002;11.854;2023-05-02T10:26:28;12.20;99.90
46730;DHT22;32476;50.002;11.854;2023-05-02T10:28:55;12.20;99.90
46730;DHT22;32476;50.002;11.854;2023-05-02T10:31:23;12.40;99.90
46730;DHT22;32476;50.002;11.854;2023-05-02T10:33:55;12.50;99.90
46730;DHT22;32476;50.002;11.854;2023-05-02T10:36:23;12.60;99.90
46730;DHT22;32476;50.002;11.854;2023-05-02T10:38:50;12.60;99.90
46730;DHT22;32476;50.002;11.854;2023-05-02T10:41:21;12.50;99.90
46730;DHT22;32476;50.002;11.854;2023-05-02T10:43:50;12.40;99.90
46730;DHT22;32476;50.002;11.854;2023-05-02T10:49:07;12.50;99.90
46730;DHT22;32476;50.002;11.854;2023-05-02T10:51:34;12.50;99.90
46730;DHT22;32476;50.002;11.854;2023-05-02T10:59:34;12.30;99.90
46730;DHT22;32476;50.002;11.854;2023-05-02T11:02:00;12.30;99.90
46730;DHT22;32476;50.002;11.854;2023-05-02T11:05:04;12.40;99.90
46730;DHT22;32476;50.002;11.854;2023-05-02T11:07:34;12.40;99.90
46730;DHT22;32476;50.002;11.854;2023-05-02T11:12:49;12.10;99.90
46730;DHT22;32476;50.002;11.854;2023-05-02T11:20:25;11.70;99.90
46730;DHT22;32476;50.002;11.854;2023-05-02T11:22:52;11.60;99.90
46730;DHT22;32476;50.002;11.854;2023-05-02T11:25:40;11.60;99.90
46730;DHT22;32476;50.002;11.854;2023-05-02T11:28:07;11.60;99.90
46730;DHT22;32476;50.002;11.854;2023-05-02T11:30:54;11.90;99.90
46730;DHT22;32476;50.002;11.854;2023-05-02T11:33:19;12.00;99.90
46730;DHT22;32476;50.002;11.854;2023-05-02T11:35:47;11.90;99.90
46730;DHT22;32476;50.002;11.854;2023-05-02T11:38:16;11.80;99.90
46730;DHT22;32476;50.002;11.854;2023-05-02T11:40:53;11.40;99.90
46730;DHT22;32476;50.002;11.854;2023-05-02T11:43:23;11.40;99.90
46730;DHT22;32476;50.002;11.854;2023-05-02T11:45:55;11.10;99.90
46730;DHT22;32476;50.002;11.854;2023-05-02T11:48:26;11.10;99.90
46730;DHT22;32476;50.002;11.854;2023-05-02T11:53:22;11.00;99.90
46730;DHT22;32476;50.002;11.854;2023-05-02T11:55:55;11.10;99.90
46730;DHT22;32476;50.002;11.854;2023-05-02T11:58:23;11.10;99.90
46730;DHT22;32476;50.002;11.854;2023-05-02T12:00:52;11.20;99.90
46730;DHT22;32476;50.002;11.854;2023-05-02T12:05:44;11.50;99.90
46730;DHT22;32476;50.002;11.854;2023-05-02T12:08:26;11.60;99.90
46730;DHT22;32476;50.002;11.854;2023-05-02T12:10:54;11.80;99.90
46730;DHT22;32476;50.002;11.854;2023-05-02T12:13:23;11.80;99.90
46730;DHT22;32476;50.002;11.854;2023-05-02T12:15:50;12.30;99.90
46730;DHT22;32476;50.002;11.854;2023-05-02T12:18:18;13.00;99.90
46730;DHT22;32476;50.002;11.854;2023-05-02T12:20:46;13.60;99.90
46730;DHT22;32476;50.002;11.854;2023-05-02T12:23:14;14.30;99.90
46730;DHT22;32476;50.002;11.854;2023-05-02T12:25:41;14.60;99.90
46730;DHT22;32476;50.002;11.854;2023-05-02T12:28:09;14.80;99.90
46730;DHT22;32476;50.002;11.854;2023-05-02T12:30:38;15.20;99.90
46730;DHT22;32476;50.002;11.854;2023-05-02T12:33:06;15.60;99.90
46730;DHT22;32476;50.002;11.854;2023-05-02T12:35:34;15.00;99.90
46730;DHT22;32476;50.002;11.854;2023-05-02T12:38:16;14.30;99.90
46730;DHT22;32476;50.002;11.854;2023-05-02T12:40:52;14.00;99.90
46730;DHT22;32476;50.002;11.854;2023-05-02T12:43:19;13.20;99.90
46730;DHT22;32476;50.002;11.854;2023-05-02T12:45:48;13.20;99.90
46730;DHT22;32476;50.002;11.854;2023-05-02T12:48:24;13.00;99.90
46730;DHT22;32476;50.002;11.854;2023-05-02T12:50:52;13.00;99.90
46730;DHT22;32476;50.002;11.854;2023-05-02T12:53:38;13.20;99.90
46730;DHT22;32476;50.002;11.854;2023-05-02T12:56:07;12.80;99.90
46730;DHT22;32476;50.002;11.854;2023-05-02T12:58:46;12.80;99.90
46730;DHT22;32476;50.002;11.854;2023-05-02T13:01:15;13.10;99.90
46730;DHT22;32476;50.002;11.854;2023-05-02T13:03:42;14.20;99.90
46730;DHT22;32476;50.002;11.854;2023-05-02T13:06:08;14.90;99.90
46730;DHT22;32476;50.002;11.854;2023-05-02T13:08:36;15.00;99.90
46730;DHT22;32476;50.002;11.854;2023-05-02T13:11:02;14.80;99.90
46730;DHT22;32476;50.002;11.854;2023-05-02T13:13:28;15.00;99.90
46730;DHT22;32476;50.002;11.854;2023-05-02T13:15:56;15.20;99.90
46730;DHT22;32476;50.002;11.854;2023-05-02T13:18:22;15.50;99.90
46730;DHT22;32476;50.002;11.854;2023-05-02T13:20:48;15.10;99.90
46730;DHT22;32476;50.002;11.854;2023-05-02T13:23:19;15.60;99.90
46730;DHT22;32476;50.002;11.854;2023-05-02T13:25:45;15.60;99.90
46730;DHT22;32476;50.002;11.854;2023-05-02T13:28:10;15.70;99.90
46730;DHT22;32476;50.002;11.854;2023-05-02T13:30:38;15.30;99.90
46730;DHT22;32476;50.002;11.854;2023-05-02T13:33:03;15.00;99.90
46730;DHT22;32476;50.002;11.854;2023-05-02T13:35:29;14.60;99.90
46730;DHT22;32476;50.002;11.854;2023-05-02T13:37:58;14.30;99.90
46730;DHT22;32476;50.002;11.854;2023-05-02T13:40:29;13.80;99.90
46730;DHT22;32476;50.002;11.854;2023-05-02T13:42:57;14.00;99.90
46730;DHT22;32476;50.002;11.854;2023-05-02T13:45:25;14.40;99.90
46730;DHT22;32476;50.002;11.854;2023-05-02T13:47:53;14.50;99.90
46730;DHT22;32476;50.002;11.854;2023-05-02T13:50:20;14.70;99.90
46730;DHT22;32476;50.002;11.854;2023-05-02T13:52:46;14.50;99.90
46730;DHT22;32476;50.002;11.854;2023-05-02T13:55:11;14.40;99.90
46730;DHT22;32476;50.002;11.854;2023-05-02T13:57:39;14.30;99.90
46730;DHT22;32476;50.002;11.854;2023-05-02T14:00:07;13.80;99.90
46730;DHT22;32476;50.002;11.854;2023-05-02T14:02:34;13.60;99.90
46730;DHT22;32476;50.002;11.854;2023-05-02T14:05:02;13.60;99.90
46730;DHT22;32476;50.002;11.854;2023-05-02T14:07:28;13.60;99.90
46730;DHT22;32476;50.002;11.854;2023-05-02T14:09:55;13.70;99.90
46730;DHT22;32476;50.002;11.854;2023-05-02T14:12:22;14.20;99.90
46730;DHT22;32476;50.002;11.854;2023-05-02T14:14:48;13.90;99.90
46730;DHT22;32476;50.002;11.854;2023-05-02T14:17:14;14.00;99.90
46730;DHT22;32476;50.002;11.854;2023-05-02T14:19:41;14.00;99.90
46730;DHT22;32476;50.002;11.854;2023-05-02T14:22:07;14.30;99.90
46730;DHT22;32476;50.002;11.854;2023-05-02T14:24:33;15.10;99.90
46730;DHT22;32476;50.002;11.854;2023-05-02T14:27:00;16.10;99.90
46730;DHT22;32476;50.002;11.854;2023-05-02T14:29:26;15.80;98.90
46730;DHT22;32476;50.002;11.854;2023-05-02T14:31:52;15.40;97.30
46730;DHT22;32476;50.002;11.854;2023-05-02T14:34:19;14.80;97.70
46730;DHT22;32476;50.002;11.854;2023-05-02T14:36:50;14.50;95.90
46730;DHT22;32476;50.002;11.854;2023-05-02T14:39:16;14.00;98.00
46730;DHT22;32476;50.002;11.854;2023-05-02T14:41:43;14.00;99.30
46730;DHT22;32476;50.002;11.854;2023-05-02T14:44:09;15.00;99.90
46730;DHT22;32476;50.002;11.854;2023-05-02T14:46:35;15.90;99.90
46730;DHT22;32476;50.002;11.854;2023-05-02T14:49:02;16.00;98.20
46730;DHT22;32476;50.002;11.854;2023-05-02T14:51:27;15.30;98.00
46730;DHT22;32476;50.002;11.854;2023-05-02T14:53:53;14.60;99.60
46730;DHT22;32476;50.002;11.854;2023-05-02T14:56:20;14.00;99.90
46730;DHT22;32476;50.002;11.854;2023-05-02T14:58:51;14.00;99.90
46730;DHT22;32476;50.002;11.854;2023-05-02T15:01:20;13.60;99.90
46730;DHT22;32476;50.002;11.854;2023-05-02T15:03:48;13.10;99.90
46730;DHT22;32476;50.002;11.854;2023-05-02T15:06:15;12.80;99.90
46730;DHT22;32476;50.002;11.854;2023-05-02T15:08:41;12.30;99.90
46730;DHT22;32476;50.002;11.854;2023-05-02T15:11:10;12.00;99.90
46730;DHT22;32476;50.002;11.854;2023-05-02T15:13:36;11.80;99.90
46730;DHT22;32476;50.002;11.854;2023-05-02T15:16:03;11.70;99.90
46730;DHT22;32476;50.002;11.854;2023-05-02T15:18:30;12.50;99.90
46730;DHT22;32476;50.002;11.854;2023-05-02T15:20:58;13.00;99.90
46730;DHT22;32476;50.002;11.854;2023-05-02T15:23:24;13.30;99.90
46730;DHT22;32476;50.002;11.854;2023-05-02T15:25:52;13.60;99.90
46730;DHT22;32476;50.002;11.854;2023-05-02T15:28:18;14.00;99.90
46730;DHT22;32476;50.002;11.854;2023-05-02T15:30:43;14.50;99.90
46730;DHT22;32476;50.002;11.854;2023-05-02T15:33:14;14.00;99.90
46730;DHT22;32476;50.002;11.854;2023-05-02T15:35:50;13.70;99.90
46730;DHT22;32476;50.002;11.854;2023-05-02T15:38:18;13.80;99.90
46730;DHT22;32476;50.002;11.854;2023-05-02T15:40:43;13.70;99.90
46730;DHT22;32476;50.002;11.854;2023-05-02T15:43:17;13.50;99.90
46730;DHT22;32476;50.002;11.854;2023-05-02T15:45:49;13.10;99.90
46730;DHT22;32476;50.002;11.854;2023-05-02T15:48:15;12.80;99.90
46730;DHT22;32476;50.002;11.854;2023-05-02T15:50:41;12.70;99.90
46730;DHT22;32476;50.002;11.854;2023-05-02T15:53:10;12.60;99.90
46730;DHT22;32476;50.002;11.854;2023-05-02T15:55:36;12.60;99.90
46730;DHT22;32476;50.002;11.854;2023-05-02T15:58:05;12.50;99.90
46730;DHT22;32476;50.002;11.854;2023-05-02T16:00:32;12.50;99.90
46730;DHT22;32476;50.002;11.854;2023-05-02T16:02:58;12.50;99.90
46730;DHT22;32476;50.002;11.854;2023-05-02T16:05:24;12.30;99.90
46730;DHT22;32476;50.002;11.854;2023-05-02T16:07:52;12.30;99.90
46730;DHT22;32476;50.002;11.854;2023-05-02T16:10:18;12.30;99.90
46730;DHT22;32476;50.002;11.854;2023-05-02T16:12:44;12.60;99.90